sensor_id;sensor_type;location;lat;lon;timestamp;P1;durP1;ratioP1;P2;durP2;ratioP2
54937;SDS011;52756;52.826;6.214;2022-07-24T00:00:15;4.00;;;2.83;;
54937;SDS011;52756;52.826;6.214;2022-07-24T00:02:41;3.08;;;2.35;;
54937;SDS011;52756;52.826;6.214;2022-07-24T00:05:07;3.47;;;2.10;;
54937;SDS011;52756;52.826;6.214;2022-07-24T00:07:33;2.65;;;2.33;;
54937;SDS011;52756;52.826;6.214;2022-07-24T00:10:00;2.90;;;2.60;;
54937;SDS011;52756;52.826;6.214;2022-07-24T00:12:26;4.10;;;2.83;;
54937;SDS011;52756;52.826;6.214;2022-07-24T00:14:52;2.75;;;2.45;;
54937;SDS011;52756;52.826;6.214;2022-07-24T00:17:18;4.47;;;3.10;;
54937;SDS011;52756;52.826;6.214;2022-07-24T00:19:44;2.90;;;2.28;;
54937;SDS011;52756;52.826;6.214;2022-07-24T00:22:09;3.20;;;2.55;;
54937;SDS011;52756;52.826;6.214;2022-07-24T00:24:35;3.25;;;2.67;;
54937;SDS011;52756;52.826;6.214;2022-07-24T00:27:01;3.30;;;2.50;;
54937;SDS011;52756;52.826;6.214;2022-07-24T00:29:27;3.17;;;2.60;;
54937;SDS011;52756;52.826;6.214;2022-07-24T00:31:53;3.67;;;2.75;;
54937;SDS011;52756;52.826;6.214;2022-07-24T00:34:19;2.92;;;2.60;;
54937;SDS011;52756;52.826;6.214;2022-07-24T00:36:44;3.55;;;2.45;;
54937;SDS011;52756;52.826;6.214;2022-07-24T00:39:10;3.65;;;3.10;;
54937;SDS011;52756;52.826;6.214;2022-07-24T00:41:36;3.58;;;2.65;;
54937;SDS011;52756;52.826;6.214;2022-07-24T00:44:06;4.40;;;3.28;;
54937;SDS011;52756;52.826;6.214;2022-07-24T00:46:38;3.35;;;3.05;;
54937;SDS011;52756;52.826;6.214;2022-07-24T00:49:05;3.80;;;2.88;;
54937;SDS011;52756;52.826;6.214;2022-07-24T00:51:33;3.63;;;2.70;;
54937;SDS011;52756;52.826;6.214;2022-07-24T00:54:00;4.07;;;2.85;;
54937;SDS011;52756;52.826;6.214;2022-07-24T00:56:30;4.68;;;3.03;;
54937;SDS011;52756;52.826;6.214;2022-07-24T00:58:56;3.15;;;2.83;;
54937;SDS011;52756;52.826;6.214;2022-07-24T01:01:22;3.90;;;2.92;;
54937;SDS011;52756;52.826;6.214;2022-07-24T01:03:48;4.30;;;3.08;;
54937;SDS011;52756;52.826;6.214;2022-07-24T01:06:14;3.65;;;3.15;;
54937;SDS011;52756;52.826;6.214;2022-07-24T01:08:40;4.30;;;3.90;;
54937;SDS011;52756;52.826;6.214;2022-07-24T01:11:08;3.47;;;2.90;;
54937;SDS011;52756;52.826;6.214;2022-07-24T01:13:35;3.88;;;2.95;;
54937;SDS011;52756;52.826;6.214;2022-07-24T01:16:01;4.07;;;3.03;;
54937;SDS011;52756;52.826;6.214;2022-07-24T01:18:27;4.78;;;3.33;;
54937;SDS011;52756;52.826;6.214;2022-07-24T01:20:53;4.15;;;3.42;;
54937;SDS011;52756;52.826;6.214;2022-07-24T01:23:20;4.78;;;3.50;;
54937;SDS011;52756;52.826;6.214;2022-07-24T01:25:47;4.75;;;3.10;;
54937;SDS011;52756;52.826;6.214;2022-07-24T01:28:13;3.72;;;2.90;;
54937;SDS011;52756;52.826;6.214;2022-07-24T01:30:38;6.20;;;5.60;;
54937;SDS011;52756;52.826;6.214;2022-07-24T01:33:04;7.15;;;5.57;;
54937;SDS011;52756;52.826;6.214;2022-07-24T01:35:30;5.07;;;4.15;;
54937;SDS011;52756;52.826;6.214;2022-07-24T01:37:56;5.82;;;5.18;;
54937;SDS011;52756;52.826;6.214;2022-07-24T01:40:22;6.78;;;5.93;;
54937;SDS011;52756;52.826;6.214;2022-07-24T01:42:47;6.15;;;5.47;;
54937;SDS011;52756;52.826;6.214;2022-07-24T01:45:13;4.18;;;3.65;;
54937;SDS011;52756;52.826;6.214;2022-07-24T01:47:40;7.95;;;6.10;;
54937;SDS011;52756;52.826;6.214;2022-07-24T01:50:08;7.00;;;5.32;;
54937;SDS011;52756;52.826;6.214;2022-07-24T01:52:37;6.03;;;5.43;;
54937;SDS011;52756;52.826;6.214;2022-07-24T01:55:03;6.60;;;5.88;;
54937;SDS011;52756;52.826;6.214;2022-07-24T01:57:30;4.55;;;4.07;;
54937;SDS011;52756;52.826;6.214;2022-07-24T01:59:57;4.38;;;3.70;;
54937;SDS011;52756;52.826;6.214;2022-07-24T02:02:24;4.45;;;3.40;;
54937;SDS011;52756;52.826;6.214;2022-07-24T02:04:50;5.85;;;4.80;;
54937;SDS011;52756;52.826;6.214;2022-07-24T02:07:15;5.13;;;4.63;;
54937;SDS011;52756;52.826;6.214;2022-07-24T02:09:41;7.35;;;5.57;;
54937;SDS011;52756;52.826;6.214;2022-07-24T02:12:07;7.40;;;5.68;;
54937;SDS011;52756;52.826;6.214;2022-07-24T02:14:33;6.28;;;5.65;;
54937;SDS011;52756;52.826;6.214;2022-07-24T02:16:58;4.13;;;3.63;;
54937;SDS011;52756;52.826;6.214;2022-07-24T02:19:24;5.00;;;4.50;;
54937;SDS011;52756;52.826;6.214;2022-07-24T02:21:50;5.82;;;5.15;;
54937;SDS011;52756;52.826;6.214;2022-07-24T02:24:15;7.57;;;6.60;;
54937;SDS011;52756;52.826;6.214;2022-07-24T02:26:41;7.35;;;6.55;;
54937;SDS011;52756;52.826;6.214;2022-07-24T02:29:07;7.50;;;6.53;;
54937;SDS011;52756;52.826;6.214;2022-07-24T02:31:33;7.30;;;6.60;;
54937;SDS011;52756;52.826;6.214;2022-07-24T02:33:58;6.95;;;6.18;;
54937;SDS011;52756;52.826;6.214;2022-07-24T02:36:24;6.63;;;5.43;;
54937;SDS011;52756;52.826;6.214;2022-07-24T02:38:50;6.60;;;5.95;;
54937;SDS011;52756;52.826;6.214;2022-07-24T02:41:16;5.32;;;4.53;;
54937;SDS011;52756;52.826;6.214;2022-07-24T02:43:43;5.05;;;4.13;;
54937;SDS011;52756;52.826;6.214;2022-07-24T02:46:08;6.00;;;5.40;;
54937;SDS011;52756;52.826;6.214;2022-07-24T02:48:34;7.65;;;6.80;;
54937;SDS011;52756;52.826;6.214;2022-07-24T02:51:00;6.85;;;5.22;;
54937;SDS011;52756;52.826;6.214;2022-07-24T02:53:25;7.43;;;6.45;;
54937;SDS011;52756;52.826;6.214;2022-07-24T02:55:51;7.95;;;7.15;;
54937;SDS011;52756;52.826;6.214;2022-07-24T02:58:17;6.82;;;6.13;;
54937;SDS011;52756;52.826;6.214;2022-07-24T03:00:42;6.95;;;5.90;;
54937;SDS011;52756;52.826;6.214;2022-07-24T03:03:08;7.35;;;6.65;;
54937;SDS011;52756;52.826;6.214;2022-07-24T03:05:34;8.40;;;6.88;;
54937;SDS011;52756;52.826;6.214;2022-07-24T03:08:00;7.43;;;6.72;;
54937;SDS011;52756;52.826;6.214;2022-07-24T03:10:25;7.70;;;6.38;;
54937;SDS011;52756;52.826;6.214;2022-07-24T03:12:51;7.38;;;6.47;;
54937;SDS011;52756;52.826;6.214;2022-07-24T03:15:17;6.88;;;6.28;;
54937;SDS011;52756;52.826;6.214;2022-07-24T03:17:50;7.88;;;7.18;;
54937;SDS011;52756;52.826;6.214;2022-07-24T03:20:17;7.30;;;6.50;;
54937;SDS011;52756;52.826;6.214;2022-07-24T03:22:44;7.57;;;6.75;;
54937;SDS011;52756;52.826;6.214;2022-07-24T03:25:10;7.43;;;6.65;;
54937;SDS011;52756;52.826;6.214;2022-07-24T03:27:36;8.32;;;6.78;;
54937;SDS011;52756;52.826;6.214;2022-07-24T03:30:02;8.52;;;7.68;;
54937;SDS011;52756;52.826;6.214;2022-07-24T03:32:29;7.45;;;6.55;;
54937;SDS011;52756;52.826;6.214;2022-07-24T03:34:54;7.88;;;6.80;;
54937;SDS011;52756;52.826;6.214;2022-07-24T03:37:20;8.60;;;7.30;;
54937;SDS011;52756;52.826;6.214;2022-07-24T03:39:46;7.40;;;5.70;;
54937;SDS011;52756;52.826;6.214;2022-07-24T03:42:11;7.60;;;6.90;;
54937;SDS011;52756;52.826;6.214;2022-07-24T03:44:37;8.25;;;6.82;;
54937;SDS011;52756;52.826;6.214;2022-07-24T03:47:03;8.68;;;6.80;;
54937;SDS011;52756;52.826;6.214;2022-07-24T03:49:28;8.43;;;7.57;;
54937;SDS011;52756;52.826;6.214;2022-07-24T03:51:54;10.18;;;7.07;;
54937;SDS011;52756;52.826;6.214;2022-07-24T03:54:19;7.35;;;6.50;;
54937;SDS011;52756;52.826;6.214;2022-07-24T03:56:47;9.93;;;7.25;;
54937;SDS011;52756;52.826;6.214;2022-07-24T03:59:12;8.05;;;7.25;;
54937;SDS011;52756;52.826;6.214;2022-07-24T04:01:38;9.55;;;8.52;;
54937;SDS011;52756;52.826;6.214;2022-07-24T04:04:05;8.73;;;7.45;;
54937;SDS011;52756;52.826;6.214;2022-07-24T04:06:31;9.98;;;6.97;;
54937;SDS011;52756;52.826;6.214;2022-07-24T04:08:57;6.82;;;6.13;;
54937;SDS011;52756;52.826;6.214;2022-07-24T04:11:23;7.85;;;7.15;;
54937;SDS011;52756;52.826;6.214;2022-07-24T04:13:49;9.00;;;8.10;;
54937;SDS011;52756;52.826;6.214;2022-07-24T04:16:15;8.00;;;7.20;;
54937;SDS011;52756;52.826;6.214;2022-07-24T04:18:41;7.45;;;6.75;;
54937;SDS011;52756;52.826;6.214;2022-07-24T04:21:07;5.82;;;5.22;;
54937;SDS011;52756;52.826;6.214;2022-07-24T04:23:33;6.50;;;5.30;;
54937;SDS011;52756;52.826;6.214;2022-07-24T04:25:59;5.43;;;4.00;;
54937;SDS011;52756;52.826;6.214;2022-07-24T04:28:24;5.72;;;4.80;;
54937;SDS011;52756;52.826;6.214;2022-07-24T04:30:50;6.72;;;5.95;;
54937;SDS011;52756;52.826;6.214;2022-07-24T04:33:16;4.35;;;3.80;;
54937;SDS011;52756;52.826;6.214;2022-07-24T04:35:42;4.20;;;3.80;;
54937;SDS011;52756;52.826;6.214;2022-07-24T04:38:08;5.18;;;4.35;;
54937;SDS011;52756;52.826;6.214;2022-07-24T04:40:34;5.20;;;4.25;;
54937;SDS011;52756;52.826;6.214;2022-07-24T04:42:59;7.45;;;6.75;;
54937;SDS011;52756;52.826;6.214;2022-07-24T04:45:25;5.60;;;5.10;;
54937;SDS011;52756;52.826;6.214;2022-07-24T04:47:51;8.52;;;7.57;;
54937;SDS011;52756;52.826;6.214;2022-07-24T04:50:16;9.00;;;7.88;;
54937;SDS011;52756;52.826;6.214;2022-07-24T04:52:42;8.88;;;7.82;;
54937;SDS011;52756;52.826;6.214;2022-07-24T04:55:09;9.05;;;7.75;;
54937;SDS011;52756;52.826;6.214;2022-07-24T04:57:35;10.35;;;8.30;;
54937;SDS011;52756;52.826;6.214;2022-07-24T05:00:01;8.93;;;8.02;;
54937;SDS011;52756;52.826;6.214;2022-07-24T05:02:29;9.55;;;8.63;;
54937;SDS011;52756;52.826;6.214;2022-07-24T05:04:55;9.25;;;8.35;;
54937;SDS011;52756;52.826;6.214;2022-07-24T05:07:21;8.73;;;7.82;;
54937;SDS011;52756;52.826;6.214;2022-07-24T05:09:47;9.73;;;8.73;;
54937;SDS011;52756;52.826;6.214;2022-07-24T05:12:13;9.15;;;8.25;;
54937;SDS011;52756;52.826;6.214;2022-07-24T05:14:38;10.85;;;9.38;;
54937;SDS011;52756;52.826;6.214;2022-07-24T05:17:04;9.25;;;8.35;;
54937;SDS011;52756;52.826;6.214;2022-07-24T05:19:31;10.05;;;8.50;;
54937;SDS011;52756;52.826;6.214;2022-07-24T05:21:56;9.90;;;8.15;;
54937;SDS011;52756;52.826;6.214;2022-07-24T05:24:22;9.10;;;8.20;;
54937;SDS011;52756;52.826;6.214;2022-07-24T05:26:50;10.95;;;8.60;;
54937;SDS011;52756;52.826;6.214;2022-07-24T05:29:16;9.95;;;8.63;;
54937;SDS011;52756;52.826;6.214;2022-07-24T05:31:42;9.25;;;8.25;;
54937;SDS011;52756;52.826;6.214;2022-07-24T05:34:07;9.73;;;7.95;;
54937;SDS011;52756;52.826;6.214;2022-07-24T05:36:34;11.00;;;8.40;;
54937;SDS011;52756;52.826;6.214;2022-07-24T05:39:00;9.40;;;8.48;;
54937;SDS011;52756;52.826;6.214;2022-07-24T05:41:26;10.35;;;9.45;;
54937;SDS011;52756;52.826;6.214;2022-07-24T05:43:51;9.73;;;8.75;;
54937;SDS011;52756;52.826;6.214;2022-07-24T05:46:18;11.27;;;8.70;;
54937;SDS011;52756;52.826;6.214;2022-07-24T05:48:44;11.18;;;9.98;;
54937;SDS011;52756;52.826;6.214;2022-07-24T05:51:10;11.05;;;9.35;;
54937;SDS011;52756;52.826;6.214;2022-07-24T05:53:36;9.82;;;8.90;;
54937;SDS011;52756;52.826;6.214;2022-07-24T05:56:02;9.32;;;8.00;;
54937;SDS011;52756;52.826;6.214;2022-07-24T05:58:28;10.20;;;9.10;;
54937;SDS011;52756;52.826;6.214;2022-07-24T06:00:54;9.60;;;8.32;;
54937;SDS011;52756;52.826;6.214;2022-07-24T06:03:20;10.35;;;9.25;;
54937;SDS011;52756;52.826;6.214;2022-07-24T06:05:45;11.07;;;9.98;;
54937;SDS011;52756;52.826;6.214;2022-07-24T06:08:11;13.95;;;10.50;;
54937;SDS011;52756;52.826;6.214;2022-07-24T06:10:37;10.95;;;9.93;;
54937;SDS011;52756;52.826;6.214;2022-07-24T06:13:02;12.13;;;9.90;;
54937;SDS011;52756;52.826;6.214;2022-07-24T06:15:28;12.82;;;10.32;;
54937;SDS011;52756;52.826;6.214;2022-07-24T06:17:54;10.45;;;9.23;;
54937;SDS011;52756;52.826;6.214;2022-07-24T06:20:20;11.90;;;10.70;;
54937;SDS011;52756;52.826;6.214;2022-07-24T06:22:46;11.07;;;9.90;;
54937;SDS011;52756;52.826;6.214;2022-07-24T06:25:11;10.95;;;9.77;;
54937;SDS011;52756;52.826;6.214;2022-07-24T06:27:40;10.52;;;9.43;;
54937;SDS011;52756;52.826;6.214;2022-07-24T06:30:11;11.80;;;9.70;;
54937;SDS011;52756;52.826;6.214;2022-07-24T06:32:38;11.05;;;9.82;;
54937;SDS011;52756;52.826;6.214;2022-07-24T06:35:05;10.77;;;9.77;;
54937;SDS011;52756;52.826;6.214;2022-07-24T06:37:31;13.30;;;9.63;;
54937;SDS011;52756;52.826;6.214;2022-07-24T06:39:57;10.20;;;9.23;;
54937;SDS011;52756;52.826;6.214;2022-07-24T06:42:23;10.85;;;9.35;;
54937;SDS011;52756;52.826;6.214;2022-07-24T06:44:49;9.82;;;8.68;;
54937;SDS011;52756;52.826;6.214;2022-07-24T06:47:14;10.95;;;8.73;;
54937;SDS011;52756;52.826;6.214;2022-07-24T06:49:40;10.23;;;9.23;;
54937;SDS011;52756;52.826;6.214;2022-07-24T06:52:06;9.20;;;8.30;;
54937;SDS011;52756;52.826;6.214;2022-07-24T06:54:31;9.02;;;7.97;;
54937;SDS011;52756;52.826;6.214;2022-07-24T06:56:57;10.90;;;8.52;;
54937;SDS011;52756;52.826;6.214;2022-07-24T06:59:23;9.38;;;8.05;;
54937;SDS011;52756;52.826;6.214;2022-07-24T07:01:48;8.30;;;7.50;;
54937;SDS011;52756;52.826;6.214;2022-07-24T07:04:14;7.90;;;7.10;;
54937;SDS011;52756;52.826;6.214;2022-07-24T07:06:40;7.90;;;7.10;;
54937;SDS011;52756;52.826;6.214;2022-07-24T07:09:05;8.65;;;7.55;;
54937;SDS011;52756;52.826;6.214;2022-07-24T07:11:31;9.13;;;8.23;;
54937;SDS011;52756;52.826;6.214;2022-07-24T07:13:57;9.00;;;8.02;;
54937;SDS011;52756;52.826;6.214;2022-07-24T07:16:22;8.90;;;7.60;;
54937;SDS011;52756;52.826;6.214;2022-07-24T07:18:48;9.77;;;8.57;;
54937;SDS011;52756;52.826;6.214;2022-07-24T07:21:14;9.35;;;8.27;;
54937;SDS011;52756;52.826;6.214;2022-07-24T07:23:40;8.82;;;7.90;;
54937;SDS011;52756;52.826;6.214;2022-07-24T07:26:05;10.10;;;8.88;;
54937;SDS011;52756;52.826;6.214;2022-07-24T07:28:31;8.75;;;7.95;;
54937;SDS011;52756;52.826;6.214;2022-07-24T07:30:57;9.80;;;7.93;;
54937;SDS011;52756;52.826;6.214;2022-07-24T07:33:22;9.05;;;8.15;;
54937;SDS011;52756;52.826;6.214;2022-07-24T07:35:48;7.10;;;6.40;;
54937;SDS011;52756;52.826;6.214;2022-07-24T07:38:14;6.10;;;5.47;;
54937;SDS011;52756;52.826;6.214;2022-07-24T07:40:40;9.65;;;5.95;;
54937;SDS011;52756;52.826;6.214;2022-07-24T07:43:06;6.15;;;5.10;;
54937;SDS011;52756;52.826;6.214;2022-07-24T07:45:31;6.07;;;4.50;;
54937;SDS011;52756;52.826;6.214;2022-07-24T07:47:57;5.32;;;3.97;;
54937;SDS011;52756;52.826;6.214;2022-07-24T07:50:24;4.47;;;3.95;;
54937;SDS011;52756;52.826;6.214;2022-07-24T07:52:49;4.15;;;3.75;;
54937;SDS011;52756;52.826;6.214;2022-07-24T07:55:15;4.80;;;3.60;;
54937;SDS011;52756;52.826;6.214;2022-07-24T07:57:41;6.70;;;4.57;;
54937;SDS011;52756;52.826;6.214;2022-07-24T08:00:08;5.20;;;4.18;;
54937;SDS011;52756;52.826;6.214;2022-07-24T08:02:35;4.93;;;4.43;;
54937;SDS011;52756;52.826;6.214;2022-07-24T08:05:00;4.82;;;4.15;;
54937;SDS011;52756;52.826;6.214;2022-07-24T08:07:26;4.93;;;4.43;;
54937;SDS011;52756;52.826;6.214;2022-07-24T08:09:52;5.75;;;3.80;;
54937;SDS011;52756;52.826;6.214;2022-07-24T08:12:17;6.50;;;4.10;;
54937;SDS011;52756;52.826;6.214;2022-07-24T08:14:43;4.72;;;3.60;;
54937;SDS011;52756;52.826;6.214;2022-07-24T08:17:09;4.57;;;3.60;;
54937;SDS011;52756;52.826;6.214;2022-07-24T08:19:34;4.03;;;3.50;;
54937;SDS011;52756;52.826;6.214;2022-07-24T08:22:00;5.22;;;4.38;;
54937;SDS011;52756;52.826;6.214;2022-07-24T08:24:26;5.13;;;3.83;;
54937;SDS011;52756;52.826;6.214;2022-07-24T08:26:52;4.15;;;3.17;;
54937;SDS011;52756;52.826;6.214;2022-07-24T08:29:17;4.18;;;3.40;;
54937;SDS011;52756;52.826;6.214;2022-07-24T08:31:43;5.50;;;3.53;;
54937;SDS011;52756;52.826;6.214;2022-07-24T08:34:09;6.63;;;3.40;;
54937;SDS011;52756;52.826;6.214;2022-07-24T08:36:34;4.40;;;3.42;;
54937;SDS011;52756;52.826;6.214;2022-07-24T08:39:00;6.43;;;4.20;;
54937;SDS011;52756;52.826;6.214;2022-07-24T08:41:30;3.72;;;3.13;;
54937;SDS011;52756;52.826;6.214;2022-07-24T08:44:01;4.28;;;3.53;;
54937;SDS011;52756;52.826;6.214;2022-07-24T08:46:28;5.05;;;3.58;;
54937;SDS011;52756;52.826;6.214;2022-07-24T08:48:54;3.85;;;2.80;;
54937;SDS011;52756;52.826;6.214;2022-07-24T08:51:21;4.55;;;3.00;;
54937;SDS011;52756;52.826;6.214;2022-07-24T08:53:48;4.10;;;2.72;;
54937;SDS011;52756;52.826;6.214;2022-07-24T08:56:15;2.85;;;2.20;;
54937;SDS011;52756;52.826;6.214;2022-07-24T08:58:42;5.82;;;2.80;;
54937;SDS011;52756;52.826;6.214;2022-07-24T09:01:08;4.00;;;2.47;;
54937;SDS011;52756;52.826;6.214;2022-07-24T09:03:40;5.70;;;2.70;;
54937;SDS011;52756;52.826;6.214;2022-07-24T09:06:09;4.20;;;2.42;;
54937;SDS011;52756;52.826;6.214;2022-07-24T09:08:35;3.63;;;2.65;;
54937;SDS011;52756;52.826;6.214;2022-07-24T09:11:21;2.80;;;2.33;;
54937;SDS011;52756;52.826;6.214;2022-07-24T09:13:46;3.28;;;2.35;;
54937;SDS011;52756;52.826;6.214;2022-07-24T09:16:35;3.97;;;2.60;;
54937;SDS011;52756;52.826;6.214;2022-07-24T09:19:05;3.40;;;2.58;;
54937;SDS011;52756;52.826;6.214;2022-07-24T09:21:36;3.42;;;2.20;;
54937;SDS011;52756;52.826;6.214;2022-07-24T09:24:14;4.88;;;2.78;;
54937;SDS011;52756;52.826;6.214;2022-07-24T09:29:14;3.15;;;2.50;;
54937;SDS011;52756;52.826;6.214;2022-07-24T09:34:24;4.85;;;2.65;;
54937;SDS011;52756;52.826;6.214;2022-07-24T09:37:09;4.30;;;2.35;;
54937;SDS011;52756;52.826;6.214;2022-07-24T09:39:35;3.00;;;2.40;;
54937;SDS011;52756;52.826;6.214;2022-07-24T09:42:03;3.45;;;2.28;;
54937;SDS011;52756;52.826;6.214;2022-07-24T09:44:30;5.28;;;2.50;;
54937;SDS011;52756;52.826;6.214;2022-07-24T09:47:03;5.30;;;2.35;;
54937;SDS011;52756;52.826;6.214;2022-07-24T09:49:31;3.05;;;2.35;;
54937;SDS011;52756;52.826;6.214;2022-07-24T09:54:43;4.03;;;2.75;;
54937;SDS011;52756;52.826;6.214;2022-07-24T09:57:15;3.92;;;2.08;;
54937;SDS011;52756;52.826;6.214;2022-07-24T09:59:43;3.15;;;2.03;;
54937;SDS011;52756;52.826;6.214;2022-07-24T10:02:15;3.03;;;2.25;;
54937;SDS011;52756;52.826;6.214;2022-07-24T10:04:43;4.53;;;2.40;;
54937;SDS011;52756;52.826;6.214;2022-07-24T10:07:10;3.30;;;2.50;;
54937;SDS011;52756;52.826;6.214;2022-07-24T10:09:40;5.03;;;2.13;;
54937;SDS011;52756;52.826;6.214;2022-07-24T10:12:11;4.18;;;2.55;;
54937;SDS011;52756;52.826;6.214;2022-07-24T10:14:44;3.58;;;2.20;;
54937;SDS011;52756;52.826;6.214;2022-07-24T10:17:12;3.80;;;2.53;;
54937;SDS011;52756;52.826;6.214;2022-07-24T10:19:43;2.50;;;2.30;;
54937;SDS011;52756;52.826;6.214;2022-07-24T10:22:11;2.13;;;1.90;;
54937;SDS011;52756;52.826;6.214;2022-07-24T10:27:28;3.08;;;2.20;;
54937;SDS011;52756;52.826;6.214;2022-07-24T10:30:06;4.47;;;2.80;;
54937;SDS011;52756;52.826;6.214;2022-07-24T10:32:33;2.75;;;2.00;;
54937;SDS011;52756;52.826;6.214;2022-07-24T10:37:36;3.17;;;2.35;;
54937;SDS011;52756;52.826;6.214;2022-07-24T10:46:34;3.28;;;2.20;;
54937;SDS011;52756;52.826;6.214;2022-07-24T10:48:30;2.42;;;1.70;;
54937;SDS011;52756;52.826;6.214;2022-07-24T10:53:27;2.60;;;2.08;;
54937;SDS011;52756;52.826;6.214;2022-07-24T10:58:52;3.85;;;2.42;;
54937;SDS011;52756;52.826;6.214;2022-07-24T11:01:48;3.67;;;2.40;;
54937;SDS011;52756;52.826;6.214;2022-07-24T11:09:21;3.55;;;2.50;;
54937;SDS011;52756;52.826;6.214;2022-07-24T11:14:24;4.65;;;2.08;;
54937;SDS011;52756;52.826;6.214;2022-07-24T11:16:51;2.83;;;1.90;;
54937;SDS011;52756;52.826;6.214;2022-07-24T11:21:44;3.40;;;2.28;;
54937;SDS011;52756;52.826;6.214;2022-07-24T11:29:25;2.85;;;2.20;;
54937;SDS011;52756;52.826;6.214;2022-07-24T11:31:59;3.17;;;2.13;;
54937;SDS011;52756;52.826;6.214;2022-07-24T11:34:27;3.03;;;2.03;;
54937;SDS011;52756;52.826;6.214;2022-07-24T11:36:54;2.97;;;2.05;;
54937;SDS011;52756;52.826;6.214;2022-07-24T11:39:26;4.93;;;2.28;;
54937;SDS011;52756;52.826;6.214;2022-07-24T11:41:59;3.50;;;2.35;;
54937;SDS011;52756;52.826;6.214;2022-07-24T11:44:31;3.83;;;2.72;;
54937;SDS011;52756;52.826;6.214;2022-07-24T11:46:59;2.33;;;1.80;;
54937;SDS011;52756;52.826;6.214;2022-07-24T11:49:30;3.90;;;2.25;;
54937;SDS011;52756;52.826;6.214;2022-07-24T11:52:28;2.92;;;2.25;;
54937;SDS011;52756;52.826;6.214;2022-07-24T11:55:00;2.83;;;1.95;;
54937;SDS011;52756;52.826;6.214;2022-07-24T11:57:47;3.03;;;2.40;;
54937;SDS011;52756;52.826;6.214;2022-07-24T12:00:16;4.00;;;2.40;;
54937;SDS011;52756;52.826;6.214;2022-07-24T12:02:51;3.80;;;1.98;;
54937;SDS011;52756;52.826;6.214;2022-07-24T12:05:23;2.88;;;1.95;;
54937;SDS011;52756;52.826;6.214;2022-07-24T12:07:52;3.45;;;1.80;;
54937;SDS011;52756;52.826;6.214;2022-07-24T12:10:23;3.78;;;2.20;;
54937;SDS011;52756;52.826;6.214;2022-07-24T12:12:50;3.65;;;2.38;;
54937;SDS011;52756;52.826;6.214;2022-07-24T12:15:18;2.30;;;2.08;;
54937;SDS011;52756;52.826;6.214;2022-07-24T12:20:29;3.55;;;2.25;;
54937;SDS011;52756;52.826;6.214;2022-07-24T12:22:58;3.15;;;2.25;;
54937;SDS011;52756;52.826;6.214;2022-07-24T12:25:25;2.55;;;1.98;;
54937;SDS011;52756;52.826;6.214;2022-07-24T12:28:06;4.47;;;2.20;;
54937;SDS011;52756;52.826;6.214;2022-07-24T12:30:35;2.17;;;1.92;;
54937;SDS011;52756;52.826;6.214;2022-07-24T12:33:04;3.13;;;2.00;;
54937;SDS011;52756;52.826;6.214;2022-07-24T12:35:56;3.05;;;2.55;;
54937;SDS011;52756;52.826;6.214;2022-07-24T12:38:28;2.63;;;2.20;;
54937;SDS011;52756;52.826;6.214;2022-07-24T12:46:35;3.58;;;2.33;;
54937;SDS011;52756;52.826;6.214;2022-07-24T12:51:43;3.63;;;1.92;;
54937;SDS011;52756;52.826;6.214;2022-07-24T12:54:19;3.30;;;2.20;;
54937;SDS011;52756;52.826;6.214;2022-07-24T12:56:50;2.90;;;2.10;;
54937;SDS011;52756;52.826;6.214;2022-07-24T12:59:36;3.95;;;2.22;;
54937;SDS011;52756;52.826;6.214;2022-07-24T13:02:10;3.15;;;2.13;;
54937;SDS011;52756;52.826;6.214;2022-07-24T13:04:44;3.17;;;1.92;;
54937;SDS011;52756;52.826;6.214;2022-07-24T13:07:11;3.85;;;2.15;;
54937;SDS011;52756;52.826;6.214;2022-07-24T13:09:37;3.70;;;2.17;;
54937;SDS011;52756;52.826;6.214;2022-07-24T13:12:04;4.30;;;2.60;;
54937;SDS011;52756;52.826;6.214;2022-07-24T13:14:31;3.15;;;2.30;;
54937;SDS011;52756;52.826;6.214;2022-07-24T13:17:16;2.72;;;2.42;;
54937;SDS011;52756;52.826;6.214;2022-07-24T13:19:43;2.47;;;1.92;;
54937;SDS011;52756;52.826;6.214;2022-07-24T13:22:10;3.75;;;2.47;;
54937;SDS011;52756;52.826;6.214;2022-07-24T13:24:36;4.65;;;2.30;;
54937;SDS011;52756;52.826;6.214;2022-07-24T13:27:03;3.22;;;2.28;;
54937;SDS011;52756;52.826;6.214;2022-07-24T13:29:33;3.42;;;2.25;;
54937;SDS011;52756;52.826;6.214;2022-07-24T13:31:59;4.25;;;2.50;;
54937;SDS011;52756;52.826;6.214;2022-07-24T13:34:26;2.70;;;2.25;;
54937;SDS011;52756;52.826;6.214;2022-07-24T13:36:53;2.65;;;2.08;;
54937;SDS011;52756;52.826;6.214;2022-07-24T13:39:19;3.67;;;2.55;;
54937;SDS011;52756;52.826;6.214;2022-07-24T13:41:46;4.07;;;2.08;;
54937;SDS011;52756;52.826;6.214;2022-07-24T13:44:12;3.13;;;2.20;;
54937;SDS011;52756;52.826;6.214;2022-07-24T13:46:38;4.25;;;2.28;;
54937;SDS011;52756;52.826;6.214;2022-07-24T13:49:04;2.60;;;2.05;;
54937;SDS011;52756;52.826;6.214;2022-07-24T13:51:31;3.63;;;2.25;;
54937;SDS011;52756;52.826;6.214;2022-07-24T13:53:57;6.35;;;2.13;;
54937;SDS011;52756;52.826;6.214;2022-07-24T13:56:25;2.63;;;2.03;;
54937;SDS011;52756;52.826;6.214;2022-07-24T13:58:51;3.70;;;2.75;;
54937;SDS011;52756;52.826;6.214;2022-07-24T14:01:17;3.78;;;2.42;;
54937;SDS011;52756;52.826;6.214;2022-07-24T14:03:44;3.17;;;2.10;;
54937;SDS011;52756;52.826;6.214;2022-07-24T14:06:10;3.40;;;2.33;;
54937;SDS011;52756;52.826;6.214;2022-07-24T14:08:37;3.63;;;2.15;;
54937;SDS011;52756;52.826;6.214;2022-07-24T14:11:04;3.42;;;2.30;;
54937;SDS011;52756;52.826;6.214;2022-07-24T14:13:30;3.67;;;2.55;;
54937;SDS011;52756;52.826;6.214;2022-07-24T14:15:56;3.10;;;2.25;;
54937;SDS011;52756;52.826;6.214;2022-07-24T14:18:22;4.35;;;2.40;;
54937;SDS011;52756;52.826;6.214;2022-07-24T14:20:48;3.85;;;2.33;;
54937;SDS011;52756;52.826;6.214;2022-07-24T14:23:13;3.70;;;2.13;;
54937;SDS011;52756;52.826;6.214;2022-07-24T14:25:39;3.95;;;2.10;;
54937;SDS011;52756;52.826;6.214;2022-07-24T14:28:05;3.25;;;1.80;;
54937;SDS011;52756;52.826;6.214;2022-07-24T14:30:32;3.42;;;1.95;;
54937;SDS011;52756;52.826;6.214;2022-07-24T14:32:57;3.72;;;1.92;;
54937;SDS011;52756;52.826;6.214;2022-07-24T14:35:23;2.58;;;2.00;;
54937;SDS011;52756;52.826;6.214;2022-07-24T14:37:49;2.22;;;1.73;;
54937;SDS011;52756;52.826;6.214;2022-07-24T14:40:15;2.35;;;1.80;;
54937;SDS011;52756;52.826;6.214;2022-07-24T14:42:40;2.28;;;1.92;;
54937;SDS011;52756;52.826;6.214;2022-07-24T14:45:06;3.25;;;1.90;;
54937;SDS011;52756;52.826;6.214;2022-07-24T14:47:32;2.65;;;1.77;;
54937;SDS011;52756;52.826;6.214;2022-07-24T14:49:58;3.15;;;1.95;;
54937;SDS011;52756;52.826;6.214;2022-07-24T14:52:24;2.83;;;1.77;;
54937;SDS011;52756;52.826;6.214;2022-07-24T14:54:50;3.80;;;1.85;;
54937;SDS011;52756;52.826;6.214;2022-07-24T14:57:16;2.10;;;1.85;;
54937;SDS011;52756;52.826;6.214;2022-07-24T14:59:42;2.92;;;2.05;;
54937;SDS011;52756;52.826;6.214;2022-07-24T15:02:08;2.70;;;2.13;;
54937;SDS011;52756;52.826;6.214;2022-07-24T15:04:35;2.00;;;1.50;;
54937;SDS011;52756;52.826;6.214;2022-07-24T15:07:01;2.97;;;2.00;;
54937;SDS011;52756;52.826;6.214;2022-07-24T15:09:27;2.90;;;2.13;;
54937;SDS011;52756;52.826;6.214;2022-07-24T15:11:53;1.75;;;1.63;;
54937;SDS011;52756;52.826;6.214;2022-07-24T15:14:19;2.33;;;1.70;;
54937;SDS011;52756;52.826;6.214;2022-07-24T15:16:45;2.63;;;1.67;;
54937;SDS011;52756;52.826;6.214;2022-07-24T15:19:10;2.78;;;1.85;;
54937;SDS011;52756;52.826;6.214;2022-07-24T15:21:36;2.47;;;2.00;;
54937;SDS011;52756;52.826;6.214;2022-07-24T15:24:03;3.03;;;1.70;;
54937;SDS011;52756;52.826;6.214;2022-07-24T15:26:29;3.67;;;2.05;;
54937;SDS011;52756;52.826;6.214;2022-07-24T15:28:55;3.70;;;1.60;;
54937;SDS011;52756;52.826;6.214;2022-07-24T15:31:21;2.25;;;1.67;;
54937;SDS011;52756;52.826;6.214;2022-07-24T15:33:46;3.42;;;1.90;;
54937;SDS011;52756;52.826;6.214;2022-07-24T15:36:13;3.08;;;1.80;;